sensor_id;sensor_type;location;lat;lon;timestamp;pressure;altitude;pressure_sealevel;temperature;humidity
52535;BME280;38443;53.164;5.802;2023-04-06T00:00:45;102024.63;;;1.56;100.00
52535;BME280;38443;53.164;5.802;2023-04-06T00:03:10;102022.81;;;1.55;100.00
52535;BME280;38443;53.164;5.802;2023-04-06T00:05:35;102021.00;;;1.53;100.00
52535;BME280;38443;53.164;5.802;2023-04-06T00:08:01;102016.44;;;1.47;100.00
52535;BME280;38443;53.164;5.802;2023-04-06T00:10:26;102012.88;;;1.45;100.00
52535;BME280;38443;53.164;5.802;2023-04-06T00:12:52;102006.72;;;1.45;100.00
52535;BME280;38443;53.164;5.802;2023-04-06T00:15:17;102014.53;;;1.42;100.00
52535;BME280;38443;53.164;5.802;2023-04-06T00:17:42;102011.81;;;1.38;100.00
52535;BME280;38443;53.164;5.802;2023-04-06T00:20:08;102003.81;;;1.35;100.00
52535;BME280;38443;53.164;5.802;2023-04-06T00:22:33;101998.47;;;1.34;100.00
52535;BME280;38443;53.164;5.802;2023-04-06T00:24:59;101996.63;;;1.30;100.00
52535;BME280;38443;53.164;5.802;2023-04-06T00:27:24;101994.03;;;1.31;100.00
52535;BME280;38443;53.164;5.802;2023-04-06T00:29:49;102000.88;;;1.25;100.00
52535;BME280;38443;53.164;5.802;2023-04-06T00:32:15;102004.41;;;1.25;100.00
52535;BME280;38443;53.164;5.802;2023-04-06T00:34:40;101990.25;;;1.22;100.00
52535;BME280;38443;53.164;5.802;2023-04-06T00:37:06;101983.19;;;1.21;100.00
52535;BME280;38443;53.164;5.802;2023-04-06T00:39:31;101994.53;;;1.18;100.00
52535;BME280;38443;53.164;5.802;2023-04-06T00:41:56;101983.97;;;1.16;100.00
52535;BME280;38443;53.164;5.802;2023-04-06T00:44:22;101982.94;;;1.11;100.00
52535;BME280;38443;53.164;5.802;2023-04-06T00:46:47;101974.97;;;1.10;100.00
52535;BME280;38443;53.164;5.802;2023-04-06T00:49:13;101971.50;;;1.11;100.00
52535;BME280;38443;53.164;5.802;2023-04-06T00:51:38;101967.00;;;1.08;100.00
52535;BME280;38443;53.164;5.802;2023-04-06T00:54:04;101970.63;;;1.10;100.00
52535;BME280;38443;53.164;5.802;2023-04-06T00:56:29;101972.22;;;1.05;100.00
52535;BME280;38443;53.164;5.802;2023-04-06T00:58:55;101966.94;;;1.05;100.00
52535;BME280;38443;53.164;5.802;2023-04-06T01:01:20;101967.78;;;1.04;100.00
52535;BME280;38443;53.164;5.802;2023-04-06T01:03:45;101961.63;;;1.04;100.00
52535;BME280;38443;53.164;5.802;2023-04-06T01:06:14;101959.84;;;1.03;100.00
52535;BME280;38443;53.164;5.802;2023-04-06T01:08:39;101955.41;;;1.02;100.00
52535;BME280;38443;53.164;5.802;2023-04-06T01:11:04;101956.28;;;1.02;100.00
52535;BME280;38443;53.164;5.802;2023-04-06T01:13:30;101949.19;;;0.99;100.00
52535;BME280;38443;53.164;5.802;2023-04-06T01:15:55;101947.34;;;0.95;100.00
52535;BME280;38443;53.164;5.802;2023-04-06T01:18:28;101945.56;;;0.94;100.00
52535;BME280;38443;53.164;5.802;2023-04-06T01:20:54;101940.28;;;0.94;100.00
52535;BME280;38443;53.164;5.802;2023-04-06T01:23:19;101932.28;;;0.91;100.00
52535;BME280;38443;53.164;5.802;2023-04-06T01:25:44;101929.66;;;0.91;100.00
52535;BME280;38443;53.164;5.802;2023-04-06T01:28:09;101940.97;;;0.87;100.00
52535;BME280;38443;53.164;5.802;2023-04-06T01:30:35;101934.81;;;0.87;100.00
52535;BME280;38443;53.164;5.802;2023-04-06T01:33:00;101931.19;;;0.83;100.00
52535;BME280;38443;53.164;5.802;2023-04-06T01:35:26;101930.25;;;0.81;100.00
52535;BME280;38443;53.164;5.802;2023-04-06T01:37:52;101926.69;;;0.79;100.00
52535;BME280;38443;53.164;5.802;2023-04-06T01:40:17;101926.56;;;0.76;100.00
52535;BME280;38443;53.164;5.802;2023-04-06T01:42:43;101923.00;;;0.74;100.00
52535;BME280;38443;53.164;5.802;2023-04-06T01:45:08;101922.94;;;0.71;100.00
52535;BME280;38443;53.164;5.802;2023-04-06T01:47:33;101922.88;;;0.69;100.00
52535;BME280;38443;53.164;5.802;2023-04-06T01:49:59;101906.13;;;0.67;100.00
52535;BME280;38443;53.164;5.802;2023-04-06T01:52:24;101909.66;;;0.66;100.00
52535;BME280;38443;53.164;5.802;2023-04-06T01:54:49;101908.59;;;0.61;100.00
52535;BME280;38443;53.164;5.802;2023-04-06T01:57:15;101909.44;;;0.60;100.00
52535;BME280;38443;53.164;5.802;2023-04-06T01:59:40;101911.19;;;0.59;100.00
52535;BME280;38443;53.164;5.802;2023-04-06T02:02:05;101902.34;;;0.57;100.00
52535;BME280;38443;53.164;5.802;2023-04-06T02:04:31;101901.34;;;0.54;100.00
52535;BME280;38443;53.164;5.802;2023-04-06T02:06:56;101895.22;;;0.53;100.00
52535;BME280;38443;53.164;5.802;2023-04-06T02:09:21;101904.75;;;0.50;100.00
52535;BME280;38443;53.164;5.802;2023-04-06T02:11:46;101894.19;;;0.48;100.00
52535;BME280;38443;53.164;5.802;2023-04-06T02:14:12;101893.22;;;0.45;100.00
52535;BME280;38443;53.164;5.802;2023-04-06T02:16:37;101894.19;;;0.48;100.00
52535;BME280;38443;53.164;5.802;2023-04-06T02:19:02;101889.75;;;0.47;100.00
52535;BME280;38443;53.164;5.802;2023-04-06T02:21:28;101893.28;;;0.48;100.00
52535;BME280;38443;53.164;5.802;2023-04-06T02:23:53;101884.50;;;0.47;100.00
52535;BME280;38443;53.164;5.802;2023-04-06T02:26:18;101888.00;;;0.46;100.00
52535;BME280;38443;53.164;5.802;2023-04-06T02:28:45;101894.09;;;0.45;100.00
52535;BME280;38443;53.164;5.802;2023-04-06T02:31:10;101884.31;;;0.41;100.00
52535;BME280;38443;53.164;5.802;2023-04-06T02:33:36;101881.63;;;0.39;100.00
52535;BME280;38443;53.164;5.802;2023-04-06T02:36:02;101892.97;;;0.37;100.00
52535;BME280;38443;53.164;5.802;2023-04-06T02:38:27;101882.34;;;0.34;100.00
52535;BME280;38443;53.164;5.802;2023-04-06T02:40:52;101882.28;;;0.31;100.00
52535;BME280;38443;53.164;5.802;2023-04-06T02:43:18;101887.44;;;0.28;100.00
52535;BME280;38443;53.164;5.802;2023-04-06T02:45:44;101880.41;;;0.27;100.00
52535;BME280;38443;53.164;5.802;2023-04-06T02:48:09;101878.41;;;0.19;100.00
52535;BME280;38443;53.164;5.802;2023-04-06T02:50:35;101878.34;;;0.16;100.00
52535;BME280;38443;53.164;5.802;2023-04-06T02:53:00;101865.03;;;0.12;100.00
52535;BME280;38443;53.164;5.802;2023-04-06T02:55:25;101872.84;;;0.09;100.00
52535;BME280;38443;53.164;5.802;2023-04-06T02:57:51;101866.63;;;0.07;100.00
52535;BME280;38443;53.164;5.802;2023-04-06T03:00:16;101862.19;;;0.04;100.00
52535;BME280;38443;53.164;5.802;2023-04-06T03:02:41;101865.59;;;0.02;100.00
52535;BME280;38443;53.164;5.802;2023-04-06T03:05:07;101873.47;;;0.00;100.00
52535;BME280;38443;53.164;5.802;2023-04-06T03:07:32;101868.09;;;-0.03;100.00
52535;BME280;38443;53.164;5.802;2023-04-06T03:09:57;101864.47;;;-0.07;100.00
52535;BME280;38443;53.164;5.802;2023-04-06T03:12:23;101874.00;;;-0.10;100.00
52535;BME280;38443;53.164;5.802;2023-04-06T03:14:48;101871.34;;;-0.12;100.00
52535;BME280;38443;53.164;5.802;2023-04-06T03:17:13;101863.34;;;-0.15;100.00
52535;BME280;38443;53.164;5.802;2023-04-06T03:19:38;101861.47;;;-0.19;100.00
52535;BME280;38443;53.164;5.802;2023-04-06T03:22:04;101866.66;;;-0.21;100.00
52535;BME280;38443;53.164;5.802;2023-04-06T03:24:29;101860.34;;;-0.27;100.00
52535;BME280;38443;53.164;5.802;2023-04-06T03:26:54;101862.78;;;-0.33;100.00
52535;BME280;38443;53.164;5.802;2023-04-06T03:29:20;101855.69;;;-0.36;100.00
52535;BME280;38443;53.164;5.802;2023-04-06T03:31:45;101856.38;;;-0.42;100.00
52535;BME280;38443;53.164;5.802;2023-04-06T03:34:11;101859.84;;;-0.43;100.00
52535;BME280;38443;53.164;5.802;2023-04-06T03:36:36;101848.38;;;-0.45;100.00
52535;BME280;38443;53.164;5.802;2023-04-06T03:39:01;101853.59;;;-0.46;100.00
52535;BME280;38443;53.164;5.802;2023-04-06T03:41:27;101843.06;;;-0.46;100.00
52535;BME280;38443;53.164;5.802;2023-04-06T03:43:52;101850.13;;;-0.45;100.00
52535;BME280;38443;53.164;5.802;2023-04-06T03:46:17;101840.50;;;-0.45;100.00
52535;BME280;38443;53.164;5.802;2023-04-06T03:48:43;101844.88;;;-0.45;100.00
52535;BME280;38443;53.164;5.802;2023-04-06T03:51:08;101843.13;;;-0.45;100.00
52535;BME280;38443;53.164;5.802;2023-04-06T03:53:33;101835.22;;;-0.45;100.00
52535;BME280;38443;53.164;5.802;2023-04-06T03:55:58;101838.75;;;-0.44;100.00
52535;BME280;38443;53.164;5.802;2023-04-06T03:58:24;101830.84;;;-0.44;100.00
52535;BME280;38443;53.164;5.802;2023-04-06T04:00:49;101841.38;;;-0.44;100.00
52535;BME280;38443;53.164;5.802;2023-04-06T04:03:14;101836.13;;;-0.44;100.00
52535;BME280;38443;53.164;5.802;2023-04-06T04:05:40;101828.19;;;-0.46;100.00
52535;BME280;38443;53.164;5.802;2023-04-06T04:08:05;101832.53;;;-0.46;100.00
52535;BME280;38443;53.164;5.802;2023-04-06T04:10:30;101829.88;;;-0.48;100.00
52535;BME280;38443;53.164;5.802;2023-04-06T04:12:56;101833.28;;;-0.50;100.00
52535;BME280;38443;53.164;5.802;2023-04-06T04:15:21;101834.16;;;-0.51;100.00
52535;BME280;38443;53.164;5.802;2023-04-06T04:17:46;101831.47;;;-0.53;100.00
52535;BME280;38443;53.164;5.802;2023-04-06T04:20:14;101837.59;;;-0.52;100.00
52535;BME280;38443;53.164;5.802;2023-04-06T04:22:40;101834.16;;;-0.51;100.00
52535;BME280;38443;53.164;5.802;2023-04-06T04:25:05;101834.16;;;-0.51;100.00
52535;BME280;38443;53.164;5.802;2023-04-06T04:27:31;101835.84;;;-0.53;100.00
52535;BME280;38443;53.164;5.802;2023-04-06T04:29:56;101832.31;;;-0.54;100.00
52535;BME280;38443;53.164;5.802;2023-04-06T04:32:21;101837.59;;;-0.52;100.00
52535;BME280;38443;53.164;5.802;2023-04-06T04:34:46;101834.16;;;-0.51;100.00
52535;BME280;38443;53.164;5.802;2023-04-06T04:37:12;101822.78;;;-0.50;100.00
52535;BME280;38443;53.164;5.802;2023-04-06T04:39:37;101829.84;;;-0.49;100.00
52535;BME280;38443;53.164;5.802;2023-04-06T04:42:02;101824.47;;;-0.52;100.00
52535;BME280;38443;53.164;5.802;2023-04-06T04:44:27;101822.56;;;-0.56;100.00
52535;BME280;38443;53.164;5.802;2023-04-06T04:46:53;101825.22;;;-0.56;100.00
52535;BME280;38443;53.164;5.802;2023-04-06T04:49:18;101817.28;;;-0.58;100.00
52535;BME280;38443;53.164;5.802;2023-04-06T04:51:43;101817.38;;;-0.55;100.00
52535;BME280;38443;53.164;5.802;2023-04-06T04:54:09;101805.97;;;-0.55;100.00
52535;BME280;38443;53.164;5.802;2023-04-06T04:56:34;101810.50;;;-0.51;100.00
52535;BME280;38443;53.164;5.802;2023-04-06T04:58:59;101815.06;;;-0.46;100.00
52535;BME280;38443;53.164;5.802;2023-04-06T05:01:25;101813.25;;;-0.47;100.00
52535;BME280;38443;53.164;5.802;2023-04-06T05:03:50;101803.66;;;-0.45;100.00
52535;BME280;38443;53.164;5.802;2023-04-06T05:06:15;101802.03;;;-0.41;100.00
52535;BME280;38443;53.164;5.802;2023-04-06T05:08:41;101796.91;;;-0.36;100.00
52535;BME280;38443;53.164;5.802;2023-04-06T05:11:06;101799.69;;;-0.32;100.00
52535;BME280;38443;53.164;5.802;2023-04-06T05:13:32;101797.19;;;-0.27;100.00
52535;BME280;38443;53.164;5.802;2023-04-06T05:15:57;101802.66;;;-0.21;100.00
52535;BME280;38443;53.164;5.802;2023-04-06T05:18:22;101799.22;;;-0.18;100.00
52535;BME280;38443;53.164;5.802;2023-04-06T05:20:47;101793.19;;;-0.14;100.00
52535;BME280;38443;53.164;5.802;2023-04-06T05:23:13;101796.81;;;-0.11;100.00
52535;BME280;38443;53.164;5.802;2023-04-06T05:25:38;101796.00;;;-0.08;100.00
52535;BME280;38443;53.164;5.802;2023-04-06T05:28:04;101786.47;;;-0.05;100.00
52535;BME280;38443;53.164;5.802;2023-04-06T05:30:29;101792.66;;;-0.03;100.00
52535;BME280;38443;53.164;5.802;2023-04-06T05:32:55;101799.84;;;0.03;100.00
52535;BME280;38443;53.164;5.802;2023-04-06T05:35:20;101793.75;;;0.04;100.00
52535;BME280;38443;53.164;5.802;2023-04-06T05:37:46;101794.81;;;0.11;100.00
52535;BME280;38443;53.164;5.802;2023-04-06T05:40:11;101790.53;;;0.14;100.00
52535;BME280;38443;53.164;5.802;2023-04-06T05:42:41;101788.06;;;0.21;100.00
52535;BME280;38443;53.164;5.802;2023-04-06T05:45:08;101781.22;;;0.27;100.00
52535;BME280;38443;53.164;5.802;2023-04-06T05:47:34;101782.25;;;0.32;100.00
52535;BME280;38443;53.164;5.802;2023-04-06T05:49:59;101786.75;;;0.36;100.00
52535;BME280;38443;53.164;5.802;2023-04-06T05:52:25;101779.97;;;0.45;100.00
52535;BME280;38443;53.164;5.802;2023-04-06T05:54:50;101776.56;;;0.49;100.00
52535;BME280;38443;53.164;5.802;2023-04-06T05:57:15;101771.53;;;0.58;100.00
52535;BME280;38443;53.164;5.802;2023-04-06T05:59:41;101776.00;;;0.61;100.00
52535;BME280;38443;53.164;5.802;2023-04-06T06:02:07;101775.28;;;0.68;100.00
52535;BME280;38443;53.164;5.802;2023-04-06T06:04:32;101773.72;;;0.74;100.00
52535;BME280;38443;53.164;5.802;2023-04-06T06:06:57;101772.09;;;0.79;100.00
52535;BME280;38443;53.164;5.802;2023-04-06T06:09:22;101771.25;;;0.81;100.00
52535;BME280;38443;53.164;5.802;2023-04-06T06:11:48;101772.28;;;0.87;100.00
52535;BME280;38443;53.164;5.802;2023-04-06T06:14:13;101775.06;;;0.93;100.00
52535;BME280;38443;53.164;5.802;2023-04-06T06:16:39;101770.97;;;1.05;100.00
52535;BME280;38443;53.164;5.802;2023-04-06T06:19:04;101776.44;;;1.12;100.00
52535;BME280;38443;53.164;5.802;2023-04-06T06:21:29;101771.31;;;1.20;100.00
52535;BME280;38443;53.164;5.802;2023-04-06T06:23:56;101776.84;;;1.29;100.00
52535;BME280;38443;53.164;5.802;2023-04-06T06:26:21;101767.41;;;1.39;100.00
52535;BME280;38443;53.164;5.802;2023-04-06T06:28:47;101763.19;;;1.47;100.00
52535;BME280;38443;53.164;5.802;2023-04-06T06:31:12;101764.16;;;1.51;100.00
52535;BME280;38443;53.164;5.802;2023-04-06T06:33:38;101765.13;;;1.54;100.00
52535;BME280;38443;53.164;5.802;2023-04-06T06:36:03;101771.38;;;1.59;100.00
52535;BME280;38443;53.164;5.802;2023-04-06T06:38:28;101767.06;;;1.63;100.00
52535;BME280;38443;53.164;5.802;2023-04-06T06:40:53;101761.91;;;1.69;100.00
52535;BME280;38443;53.164;5.802;2023-04-06T06:43:19;101751.81;;;1.91;100.00
52535;BME280;38443;53.164;5.802;2023-04-06T06:45:44;101755.66;;;2.52;100.00
52535;BME280;38443;53.164;5.802;2023-04-06T06:48:09;101751.56;;;3.23;100.00
52535;BME280;38443;53.164;5.802;2023-04-06T06:50:36;101748.97;;;3.90;100.00
52535;BME280;38443;53.164;5.802;2023-04-06T06:53:01;101747.81;;;4.45;100.00
52535;BME280;38443;53.164;5.802;2023-04-06T06:55:26;101745.78;;;5.11;100.00
52535;BME280;38443;53.164;5.802;2023-04-06T06:57:53;101731.97;;;5.63;100.00
52535;BME280;38443;53.164;5.802;2023-04-06T07:00:18;101729.34;;;5.70;100.00
52535;BME280;38443;53.164;5.802;2023-04-06T07:02:46;101725.16;;;6.15;100.00
52535;BME280;38443;53.164;5.802;2023-04-06T07:05:11;101720.66;;;5.97;100.00
52535;BME280;38443;53.164;5.802;2023-04-06T07:07:36;101724.81;;;5.52;100.00
52535;BME280;38443;53.164;5.802;2023-04-06T07:10:02;101733.25;;;4.93;100.00
52535;BME280;38443;53.164;5.802;2023-04-06T07:12:27;101733.09;;;4.71;100.00
52535;BME280;38443;53.164;5.802;2023-04-06T07:14:52;101723.97;;;4.42;100.00
52535;BME280;38443;53.164;5.802;2023-04-06T07:17:18;101722.16;;;4.37;100.00
52535;BME280;38443;53.164;5.802;2023-04-06T07:19:43;101721.13;;;4.23;100.00
52535;BME280;38443;53.164;5.802;2023-04-06T07:22:09;101720.22;;;4.23;100.00
52535;BME280;38443;53.164;5.802;2023-04-06T07:24:34;101721.91;;;4.16;100.00
52535;BME280;38443;53.164;5.802;2023-04-06T07:26:59;101714.94;;;4.26;100.00
52535;BME280;38443;53.164;5.802;2023-04-06T07:29:25;101707.91;;;4.28;100.00
52535;BME280;38443;53.164;5.802;2023-04-06T07:31:51;101707.09;;;4.35;100.00
52535;BME280;38443;53.164;5.802;2023-04-06T07:34:16;101706.22;;;4.36;100.00
52535;BME280;38443;53.164;5.802;2023-04-06T07:36:42;101708.97;;;4.44;100.00
52535;BME280;38443;53.164;5.802;2023-04-06T07:39:07;101710.00;;;4.61;100.00
52535;BME280;38443;53.164;5.802;2023-04-06T07:41:32;101710.06;;;4.70;100.00
52535;BME280;38443;53.164;5.802;2023-04-06T07:43:58;101705.69;;;4.77;100.00
52535;BME280;38443;53.164;5.802;2023-04-06T07:46:23;101705.81;;;4.88;100.00
52535;BME280;38443;53.164;5.802;2023-04-06T07:48:49;101710.28;;;4.95;100.00
52535;BME280;38443;53.164;5.802;2023-04-06T07:51:15;101697.09;;;5.09;100.00
52535;BME280;38443;53.164;5.802;2023-04-06T07:53:43;101701.59;;;5.16;100.00
52535;BME280;38443;53.164;5.802;2023-04-06T07:56:09;101701.69;;;5.33;100.00
52535;BME280;38443;53.164;5.802;2023-04-06T07:58:34;101693.13;;;5.91;100.00
52535;BME280;38443;53.164;5.802;2023-04-06T08:01:01;101692.44;;;6.52;100.00
52535;BME280;38443;53.164;5.802;2023-04-06T08:03:26;101685.34;;;6.80;100.00
52535;BME280;38443;53.164;5.802;2023-04-06T08:05:52;101688.88;;;7.10;100.00
52535;BME280;38443;53.164;5.802;2023-04-06T08:08:18;101684.31;;;7.53;100.00
52535;BME280;38443;53.164;5.802;2023-04-06T08:10:43;101672.72;;;7.76;100.00
52535;BME280;38443;53.164;5.802;2023-04-06T08:13:08;101665.59;;;7.75;100.00
52535;BME280;38443;53.164;5.802;2023-04-06T08:15:34;101671.81;;;7.71;100.00
52535;BME280;38443;53.164;5.802;2023-04-06T08:17:59;101672.66;;;7.85;100.00
52535;BME280;38443;53.164;5.802;2023-04-06T08:20:24;101670.81;;;7.95;100.00
52535;BME280;38443;53.164;5.802;2023-04-06T08:22:50;101667.09;;;8.24;100.00
52535;BME280;38443;53.164;5.802;2023-04-06T08:25:15;101671.59;;;8.20;100.00
52535;BME280;38443;53.164;5.802;2023-04-06T08:27:40;101662.75;;;8.09;100.00
52535;BME280;38443;53.164;5.802;2023-04-06T08:30:06;101661.88;;;8.05;100.00
52535;BME280;38443;53.164;5.802;2023-04-06T08:32:31;101666.38;;;7.98;100.00
52535;BME280;38443;53.164;5.802;2023-04-06T08:34:56;101660.16;;;7.96;100.00
52535;BME280;38443;53.164;5.802;2023-04-06T08:37:22;101658.41;;;7.94;100.00
52535;BME280;38443;53.164;5.802;2023-04-06T08:39:47;101663.75;;;7.92;100.00
52535;BME280;38443;53.164;5.802;2023-04-06T08:42:19;101662.03;;;7.82;100.00
52535;BME280;38443;53.164;5.802;2023-04-06T08:44:46;101654.00;;;7.84;100.00
52535;BME280;38443;53.164;5.802;2023-04-06T08:47:12;101662.06;;;7.74;100.00
52535;BME280;38443;53.164;5.802;2023-04-06T08:49:37;101658.53;;;7.66;100.00
52535;BME280;38443;53.164;5.802;2023-04-06T08:52:06;101652.31;;;7.69;100.00
52535;BME280;38443;53.164;5.802;2023-04-06T08:54:33;101653.19;;;7.74;100.00
52535;BME280;38443;53.164;5.802;2023-04-06T08:56:58;101647.78;;;7.83;100.00
52535;BME280;38443;53.164;5.802;2023-04-06T08:59:24;101651.25;;;7.97;100.00
52535;BME280;38443;53.164;5.802;2023-04-06T09:01:51;101641.38;;;8.16;100.00
52535;BME280;38443;53.164;5.802;2023-04-06T09:04:18;101654.63;;;8.32;100.00
52535;BME280;38443;53.164;5.802;2023-04-06T09:06:43;101641.22;;;8.39;100.00
52535;BME280;38443;53.164;5.802;2023-04-06T09:09:08;101641.19;;;8.49;100.00
52535;BME280;38443;53.164;5.802;2023-04-06T09:11:51;101629.69;;;8.42;100.00
52535;BME280;38443;53.164;5.802;2023-04-06T09:14:17;101633.22;;;8.39;100.00
52535;BME280;38443;53.164;5.802;2023-04-06T09:16:57;101634.09;;;8.42;100.00
52535;BME280;38443;53.164;5.802;2023-04-06T09:19:23;101634.91;;;8.54;100.00
52535;BME280;38443;53.164;5.802;2023-04-06T09:21:48;101633.84;;;8.74;100.00
52535;BME280;38443;53.164;5.802;2023-04-06T09:24:13;101617.75;;;8.82;100.00
52535;BME280;38443;53.164;5.802;2023-04-06T09:26:46;101617.63;;;8.94;100.00
52535;BME280;38443;53.164;5.802;2023-04-06T09:29:24;101621.13;;;9.02;100.00
52535;BME280;38443;53.164;5.802;2023-04-06T09:32:02;101615.81;;;9.02;100.00
52535;BME280;38443;53.164;5.802;2023-04-06T09:34:27;101622.00;;;9.03;100.00
52535;BME280;38443;53.164;5.802;2023-04-06T09:36:53;101624.78;;;8.92;96.22
52535;BME280;38443;53.164;5.802;2023-04-06T09:39:21;101615.81;;;8.99;100.00
52535;BME280;38443;53.164;5.802;2023-04-06T09:41:51;101622.88;;;9.05;100.00
52535;BME280;38443;53.164;5.802;2023-04-06T09:44:17;101605.00;;;9.11;100.00
52535;BME280;38443;53.164;5.802;2023-04-06T09:46:43;101613.88;;;9.15;99.67
52535;BME280;38443;53.164;5.802;2023-04-06T09:49:10;101602.19;;;9.25;100.00
52535;BME280;38443;53.164;5.802;2023-04-06T09:51:51;101598.69;;;9.20;96.83
52535;BME280;38443;53.164;5.802;2023-04-06T09:54:21;101606.66;;;9.22;99.56
52535;BME280;38443;53.164;5.802;2023-04-06T09:59:48;101595.09;;;9.19;87.67
52535;BME280;38443;53.164;5.802;2023-04-06T10:02:25;101591.53;;;9.22;91.04
52535;BME280;38443;53.164;5.802;2023-04-06T10:07:44;101600.38;;;9.26;96.83
52535;BME280;38443;53.164;5.802;2023-04-06T10:10:11;101603.09;;;9.24;95.81
52535;BME280;38443;53.164;5.802;2023-04-06T10:12:39;101597.72;;;9.26;94.43
52535;BME280;38443;53.164;5.802;2023-04-06T10:15:06;101602.19;;;9.25;96.82
52535;BME280;38443;53.164;5.802;2023-04-06T10:17:32;101605.72;;;9.27;95.62
52535;BME280;38443;53.164;5.802;2023-04-06T10:20:07;101598.56;;;9.29;91.39
52535;BME280;38443;53.164;5.802;2023-04-06T10:22:41;101603.72;;;9.45;98.89
52535;BME280;38443;53.164;5.802;2023-04-06T10:25:08;101605.47;;;9.47;97.94
52535;BME280;38443;53.164;5.802;2023-04-06T10:27:34;101597.44;;;9.49;91.78
52535;BME280;38443;53.164;5.802;2023-04-06T10:30:06;101597.38;;;9.55;91.36
52535;BME280;38443;53.164;5.802;2023-04-06T10:32:33;101591.06;;;9.61;91.82
52535;BME280;38443;53.164;5.802;2023-04-06T10:35:25;101597.97;;;9.75;92.88
52535;BME280;38443;53.164;5.802;2023-04-06T10:38:03;101586.41;;;9.73;91.70
52535;BME280;38443;53.164;5.802;2023-04-06T10:40:29;101588.28;;;9.68;93.68
52535;BME280;38443;53.164;5.802;2023-04-06T10:43:07;101596.34;;;9.65;93.95
52535;BME280;38443;53.164;5.802;2023-04-06T10:45:33;101589.97;;;9.74;94.37
52535;BME280;38443;53.164;5.802;2023-04-06T10:47:58;101597.78;;;9.89;98.96
52535;BME280;38443;53.164;5.802;2023-04-06T10:50:24;101591.41;;;9.98;99.33
52535;BME280;38443;53.164;5.802;2023-04-06T10:53:00;101585.94;;;10.06;99.33
52535;BME280;38443;53.164;5.802;2023-04-06T10:55:27;101588.38;;;10.23;100.00
52535;BME280;38443;53.164;5.802;2023-04-06T10:57:53;101591.78;;;10.34;100.00
52535;BME280;38443;53.164;5.802;2023-04-06T11:00:18;101588.28;;;10.27;95.34
52535;BME280;38443;53.164;5.802;2023-04-06T11:02:44;101585.63;;;10.26;98.68
52535;BME280;38443;53.164;5.802;2023-04-06T11:05:11;101587.63;;;10.14;92.65
52535;BME280;38443;53.164;5.802;2023-04-06T11:07:36;101591.84;;;10.26;100.00
52535;BME280;38443;53.164;5.802;2023-04-06T11:10:02;101593.59;;;10.32;100.00
52535;BME280;38443;53.164;5.802;2023-04-06T11:12:28;101587.25;;;10.39;100.00
52535;BME280;38443;53.164;5.802;2023-04-06T11:14:58;101579.25;;;10.36;99.50
52535;BME280;38443;53.164;5.802;2023-04-06T11:17:35;101574.91;;;10.27;96.36
52535;BME280;38443;53.164;5.802;2023-04-06T11:20:01;101565.06;;;10.32;100.00
52535;BME280;38443;53.164;5.802;2023-04-06T11:22:27;101584.66;;;10.34;100.00
52535;BME280;38443;53.164;5.802;2023-04-06T11:25:04;101588.84;;;10.51;100.00
52535;BME280;38443;53.164;5.802;2023-04-06T11:27:30;101587.91;;;10.53;99.64
52535;BME280;38443;53.164;5.802;2023-04-06T11:29:58;101585.06;;;10.63;100.00
52535;BME280;38443;53.164;5.802;2023-04-06T11:32:23;101590.56;;;10.55;98.56
52535;BME280;38443;53.164;5.802;2023-04-06T11:34:49;101585.00;;;10.64;100.00
52535;BME280;38443;53.164;5.802;2023-04-06T11:37:15;101584.13;;;10.65;100.00
52535;BME280;38443;53.164;5.802;2023-04-06T11:39:47;101591.50;;;10.52;100.00
52535;BME280;38443;53.164;5.802;2023-04-06T11:42:24;101568.34;;;10.48;100.00
52535;BME280;38443;53.164;5.802;2023-04-06T11:44:51;101576.47;;;10.42;100.00
52535;BME280;38443;53.164;5.802;2023-04-06T11:47:18;101579.03;;;10.48;100.00
52535;BME280;38443;53.164;5.802;2023-04-06T11:49:45;101566.50;;;10.52;100.00
52535;BME280;38443;53.164;5.802;2023-04-06T11:52:23;101573.50;;;10.61;100.00
52535;BME280;38443;53.164;5.802;2023-04-06T11:54:50;101571.59;;;10.67;100.00
52535;BME280;38443;53.164;5.802;2023-04-06T11:57:17;101566.22;;;10.69;100.00
52535;BME280;38443;53.164;5.802;2023-04-06T11:59:43;101555.63;;;10.63;100.00
52535;BME280;38443;53.164;5.802;2023-04-06T12:02:09;101564.41;;;10.71;100.00
52535;BME280;38443;53.164;5.802;2023-04-06T12:04:35;101568.09;;;10.62;100.00
52535;BME280;38443;53.164;5.802;2023-04-06T12:07:01;101566.22;;;10.67;100.00
52535;BME280;38443;53.164;5.802;2023-04-06T12:09:27;101571.47;;;10.75;100.00
52535;BME280;38443;53.164;5.802;2023-04-06T12:11:52;101573.25;;;10.74;100.00
52535;BME280;38443;53.164;5.802;2023-04-06T12:14:18;101565.28;;;10.70;100.00
52535;BME280;38443;53.164;5.802;2023-04-06T12:16:43;101573.31;;;10.70;100.00
52535;BME280;38443;53.164;5.802;2023-04-06T12:19:09;101569.78;;;10.69;100.00
52535;BME280;38443;53.164;5.802;2023-04-06T12:21:35;101566.16;;;10.72;100.00
52535;BME280;38443;53.164;5.802;2023-04-06T12:24:04;101562.44;;;10.81;100.00
52535;BME280;38443;53.164;5.802;2023-04-06T12:26:30;101554.41;;;10.79;100.00
52535;BME280;38443;53.164;5.802;2023-04-06T12:28:57;101557.09;;;10.79;100.00
52535;BME280;38443;53.164;5.802;2023-04-06T12:31:23;101566.16;;;10.72;100.00
52535;BME280;38443;53.164;5.802;2023-04-06T12:33:50;101552.16;;;10.56;100.00
52535;BME280;38443;53.164;5.802;2023-04-06T12:36:17;101560.56;;;10.34;100.00
52535;BME280;38443;53.164;5.802;2023-04-06T12:38:49;101551.69;;;10.32;100.00
52535;BME280;38443;53.164;5.802;2023-04-06T12:41:16;101564.03;;;10.40;100.00
52535;BME280;38443;53.164;5.802;2023-04-06T12:43:42;101559.44;;;10.46;100.00
52535;BME280;38443;53.164;5.802;2023-04-06T12:46:08;101566.69;;;10.41;100.00
52535;BME280;38443;53.164;5.802;2023-04-06T12:48:34;101560.56;;;10.34;100.00